createdAt,value
2019-01-26T00:02:25.326Z,50.00
2019-01-26T00:08:31.399Z,61.77
2019-01-26T00:14:37.336Z,48.50
2019-01-26T00:20:43.268Z,66.10
2019-01-26T00:26:49.219Z,67.57
2019-01-26T00:32:55.135Z,73.60
2019-01-26T00:39:00.854Z,81.20
2019-01-26T00:45:07.697Z,84.23
2019-01-26T00:51:17.238Z,91.43
2019-01-26T00:57:21.102Z,86.67
2019-01-26T01:03:27.030Z,110.03
2019-01-26T01:09:33.033Z,117.83
2019-01-26T01:15:38.857Z,119.07
2019-01-26T01:21:45.184Z,117.23
2019-01-26T01:27:51.073Z,115.67
2019-01-26T01:33:56.874Z,123.93
2019-01-26T01:40:02.841Z,117.87
2019-01-26T01:46:08.720Z,129.33
2019-01-26T01:52:14.748Z,118.90
2019-01-26T01:58:20.788Z,123.93
2019-01-26T02:04:26.526Z,115.53
2019-01-26T02:10:32.286Z,129.30
2019-01-26T02:16:38.383Z,118.77
2019-01-26T02:22:44.260Z,125.73
2019-01-26T02:28:50.490Z,134.93
2019-01-26T02:34:56.384Z,127.47
2019-01-26T02:41:02.448Z,134.70
2019-01-26T02:47:08.295Z,139.17
2019-01-26T02:53:14.276Z,128.03
2019-01-26T02:59:20.265Z,139.37
2019-01-26T03:05:26.558Z,140.47
2019-01-26T03:11:32.322Z,143.20
2019-01-26T03:17:38.231Z,143.87
2019-01-26T03:23:43.963Z,138.80
2019-01-26T03:29:49.675Z,139.23
2019-01-26T03:35:55.358Z,137.90
2019-01-26T03:42:01.326Z,150.23
2019-01-26T03:48:07.625Z,143.97
2019-01-26T03:54:13.847Z,145.57
2019-01-26T04:00:26.178Z,144.80
2019-01-26T04:06:34.456Z,139.03
2019-01-26T04:12:40.453Z,133.97
2019-01-26T04:18:46.328Z,124.93
2019-01-26T04:24:52.767Z,136.13
2019-01-26T04:30:58.541Z,138.17
2019-01-26T04:37:04.318Z,149.43
2019-01-26T04:43:10.014Z,156.47
2019-01-26T04:49:15.727Z,146.90
2019-01-26T04:55:22.196Z,159.27
2019-01-26T05:01:28.089Z,142.27
2019-01-26T05:07:33.936Z,166.87
2019-01-26T05:13:39.764Z,149.20
2019-01-26T05:19:45.635Z,150.23
2019-01-26T05:25:51.371Z,146.63
2019-01-26T05:31:57.330Z,152.70
2019-01-26T05:38:05.959Z,148.80
2019-01-26T05:44:11.090Z,158.77
2019-01-26T05:50:28.525Z,140.77
2019-01-26T05:56:35.760Z,134.83
2019-01-26T06:02:41.665Z,137.67
2019-01-26T06:08:49.529Z,137.00
2019-01-26T06:14:55.338Z,126.97
2019-01-26T06:21:05.092Z,117.60
2019-01-26T06:27:12.673Z,102.03
2019-01-26T06:33:18.414Z,100.67
2019-01-26T06:39:24.373Z,105.33
2019-01-26T06:45:32.851Z,97.67
2019-01-26T06:51:40.833Z,85.67
2019-01-26T06:57:49.334Z,84.27
2019-01-26T07:03:55.267Z,83.20
2019-01-26T07:10:01.390Z,86.33
2019-01-26T07:16:07.509Z,86.93
2019-01-26T07:22:14.664Z,76.30
2019-01-26T07:28:27.120Z,77.50
2019-01-26T07:34:32.963Z,84.27
2019-01-26T07:40:43.221Z,87.30
2019-01-26T07:46:48.994Z,79.83
2019-01-26T07:52:58.113Z,79.60
2019-01-26T07:59:04.273Z,81.10
2019-01-26T08:05:11.975Z,76.10
2019-01-26T08:11:18.081Z,78.20
2019-01-26T08:17:24.121Z,90.77
2019-01-26T08:23:30.222Z,87.67
2019-01-26T08:29:36.011Z,94.87
2019-01-26T08:35:42.031Z,92.80
2019-01-26T08:41:47.819Z,91.63
2019-01-26T08:47:53.681Z,96.67
2019-01-26T08:53:59.543Z,94.97
2019-01-26T09:00:06.662Z,94.60
2019-01-26T09:06:16.874Z,90.53
2019-01-26T09:12:22.835Z,93.93
2019-01-26T09:18:28.701Z,91.67
2019-01-26T09:24:34.442Z,83.73
2019-01-26T09:30:40.435Z,79.20
2019-01-26T09:36:46.289Z,73.83
2019-01-26T09:42:52.502Z,78.13
2019-01-26T09:48:58.365Z,67.93
2019-01-26T09:55:05.002Z,73.30
2019-01-26T10:01:10.972Z,74.27
2019-01-26T10:07:16.697Z,63.63
2019-01-26T10:13:22.558Z,60.40
2019-01-26T10:19:28.389Z,60.50
2019-01-26T10:25:34.212Z,61.37
2019-01-26T10:31:40.052Z,57.80
2019-01-26T10:37:46.069Z,52.57
2019-01-26T10:43:53.133Z,52.70
2019-01-26T10:49:58.876Z,50.83
2019-01-26T10:56:04.739Z,48.67
2019-01-26T11:02:11.034Z,47.47
2019-01-26T11:08:16.905Z,49.20
2019-01-26T11:14:23.009Z,42.20
2019-01-26T11:20:28.819Z,38.83
2019-01-26T11:26:34.999Z,35.77
2019-01-26T11:32:42.235Z,35.87
2019-01-26T11:38:48.433Z,33.77
2019-01-26T11:45:21.931Z,32.07
2019-01-26T11:51:45.403Z,26.83
2019-01-26T11:57:51.824Z,25.40
2019-01-26T12:04:11.339Z,26.67
2019-01-26T12:10:17.053Z,24.37
2019-01-26T12:16:26.967Z,32.73
2019-01-26T12:22:30.697Z,58.60
2019-01-26T12:28:39.738Z,27.87
2019-01-26T12:34:45.510Z,21.43
2019-01-26T12:40:51.299Z,21.43
2019-01-26T12:46:57.148Z,19.30
2019-01-26T12:53:02.954Z,19.90
2019-01-26T12:59:08.804Z,21.13
2019-01-26T13:05:15.213Z,125.63
2019-01-26T13:11:28.056Z,15.83
2019-01-26T13:17:36.038Z,14.77
2019-01-26T13:23:42.960Z,13.33
2019-01-26T13:29:48.759Z,12.77
2019-01-26T13:35:54.701Z,11.33
2019-01-26T13:42:00.671Z,11.07
2019-01-26T13:48:06.877Z,11.73
2019-01-26T13:54:13.842Z,13.83
2019-01-26T14:00:26.326Z,11.53
2019-01-26T14:06:32.076Z,14.73
2019-01-26T14:12:37.859Z,16.50
2019-01-26T14:18:44.976Z,12.80
2019-01-26T14:24:53.924Z,17.13
2019-01-26T14:31:06.210Z,15.13
2019-01-26T14:37:13.395Z,13.37
2019-01-26T14:43:19.275Z,11.00
2019-01-26T14:49:25.036Z,9.00
2019-01-26T14:55:33.508Z,8.50
2019-01-26T15:01:38.394Z,8.07
2019-01-26T15:07:46.473Z,7.63
2019-01-26T15:13:52.216Z,8.47
2019-01-26T15:19:57.997Z,8.03
2019-01-26T15:26:03.870Z,8.87
2019-01-26T15:32:12.697Z,10.03
2019-01-26T15:38:21.031Z,9.30
2019-01-26T15:44:26.838Z,10.13
2019-01-26T15:50:32.618Z,8.97
2019-01-26T15:56:38.357Z,9.60
2019-01-26T16:02:45.793Z,8.70
2019-01-26T16:08:52.251Z,9.07
2019-01-26T16:14:58.144Z,9.10
2019-01-26T16:21:05.835Z,7.97
2019-01-26T16:27:14.118Z,8.73
2019-01-26T16:33:21.599Z,7.87
2019-01-26T16:39:27.376Z,8.23
2019-01-26T16:45:40.872Z,7.93
2019-01-26T16:51:48.391Z,8.23
2019-01-26T16:57:57.317Z,6.80
2019-01-26T17:04:03.462Z,7.40
2019-01-26T17:10:12.322Z,9.20
2019-01-26T17:16:19.787Z,7.77
2019-01-26T17:22:31.368Z,7.87
2019-01-26T17:28:37.264Z,7.53
2019-01-26T17:34:42.993Z,6.77
2019-01-26T17:40:54.214Z,7.83
2019-01-26T17:46:56.363Z,7.77
2019-01-26T17:53:02.136Z,8.13
2019-01-26T17:59:12.497Z,7.20
2019-01-26T18:05:18.370Z,6.37
2019-01-26T18:11:24.637Z,5.37
2019-01-26T18:17:30.501Z,5.67
2019-01-26T18:23:36.416Z,5.73
2019-01-26T18:29:42.290Z,7.03
2019-01-26T18:35:48.012Z,8.10
2019-01-26T18:41:53.805Z,11.20
2019-01-26T18:47:59.672Z,7.30
2019-01-26T18:54:05.660Z,6.37
2019-01-26T19:00:26.664Z,7.20
2019-01-26T19:06:34.979Z,10.23
2019-01-26T19:12:41.142Z,6.90
2019-01-26T19:18:49.235Z,6.50
2019-01-26T19:24:55.105Z,5.90
2019-01-26T19:31:00.920Z,5.47
2019-01-26T19:37:09.381Z,9.10
2019-01-26T19:43:14.440Z,5.67
2019-01-26T19:49:20.270Z,5.00
2019-01-26T19:55:26.460Z,6.20
2019-01-26T20:01:32.831Z,5.53
2019-01-26T20:07:38.745Z,4.80
2019-01-26T20:13:44.516Z,4.37
2019-01-26T20:19:50.219Z,4.47
2019-01-26T20:25:56.034Z,4.10
2019-01-26T20:32:01.910Z,4.37
2019-01-26T20:38:07.677Z,4.50
2019-01-26T20:44:13.422Z,4.27
2019-01-26T20:50:19.223Z,5.10
2019-01-26T20:56:25.082Z,4.93
2019-01-26T21:02:31.000Z,4.93
2019-01-26T21:08:36.780Z,5.57
2019-01-26T21:14:42.745Z,5.63
2019-01-26T21:20:54.776Z,5.07
2019-01-26T21:27:00.714Z,5.40
2019-01-26T21:33:07.652Z,4.43
2019-01-26T21:39:16.635Z,3.97
2019-01-26T21:45:24.545Z,3.50
2019-01-26T21:51:38.924Z,3.60
2019-01-26T21:57:41.128Z,3.13
2019-01-26T22:03:50.040Z,2.90
2019-01-26T22:09:55.892Z,2.70
2019-01-26T22:16:02.211Z,2.30
2019-01-26T22:22:08.121Z,2.40
2019-01-26T22:28:16.565Z,2.40
2019-01-26T22:34:25.445Z,2.20
2019-01-26T22:40:39.490Z,2.17
2019-01-26T22:46:45.460Z,2.40
2019-01-26T22:52:51.313Z,2.33
2019-01-26T22:58:57.165Z,2.30
2019-01-26T23:05:44.805Z,2.87
2019-01-26T23:12:22.276Z,1.87
2019-01-26T23:18:56.880Z,1.63
2019-01-26T23:25:33.112Z,2.47
2019-01-26T23:31:39.009Z,2.20
2019-01-26T23:37:45.037Z,2.50
2019-01-26T23:43:50.953Z,1.77
2019-01-26T23:49:56.675Z,2.20
2019-01-26T23:56:02.791Z,1.60
